Missouri Valley, Iowa
Current Conditions -  °F | °C
As of 6:15 AM on Sunday 23 Nov 2014 (Local Time) from KBTA Reporting Station
Broken Clouds Broken Clouds  
Wind Chill: 11°   Ceiling: 3400
Heat Index: 11°   Visibility: 10mi
Dew Point:   Wind: 9mph
Humidity: 89%   Direction: 160°SSE
Pressure: 29.45"   Gusts: NA
Location:  41.56°N, 95.89°W
Report Text: KBTA 231215Z AUTO 16008KT 10SM SCT010 BKN034 11/09 A2945 RMK AO2 T01100093
Loading
Personal Weather Stations






























Interactive Weather Map New forecast layout! Learn more

10-Day Weather Forecast

Advertisements
Track Severe Weather on mobile